Main page
METAR-TAF:

METAR-TAF

Airports :

Larnaca, Cyprus

Larnaca International Airport

latitude: 34-53N, longitude: 033-38E, elevation: 2 m

Current weather observation

The report was made 21 minutes ago, at 11:30 UTC
Wind 20 kt from the South/Southwest
Temperature 32°C
Humidity 43%
Pressure 1007 hPa
Visibility 10 km or more
Few clouds at a height of 3000 ft

METAR: LCLK 211130Z 20020KT 9999 FEW030 32/18 Q1007 NOSIG

Time: 14:51 (11:51 UTC)

Forecast

The report was made 21 minutes ago, at 11:30 UTC
Forecast valid from 21 at 12 UTC to 22 at 12 UTC
Wind 20 kt from the South/Southwest
Few clouds at a height of 3000 ft
Becoming
from 21 at 17 UTC to 21 at 19 UTC
Wind 6 kt from the West
Becoming
from 22 at 08 UTC to 22 at 11 UTC
Wind 11 kt from the South

TAF: LCLK 211130Z 2112/2212 21020KT FEW030 BECMG 2117/2119 28006KT BECMG 2208/2211 19011KT

Weather observations and forecasts of more than 4000 airports (METAR and TAF reports).

The available stations are represented by yellow and red dots on the map.

Hover mouse over dot to see the name of the station.

Then click to see weather observations and forecasts.

To change the map : click on the green buttons with a black cross to zoom in, on the green button with a dash to zoom out, or on the green arrows for adjacent maps.


METAR-TAF: